sensor_id;sensor_type;location;lat;lon;timestamp;P1;durP1;ratioP1;P2;durP2;ratioP2
55037;SDS011;40937;53.594;10.034;2023-01-29T00:00:19;26.73;;;24.13;;
55037;SDS011;40937;53.594;10.034;2023-01-29T00:02:46;26.10;;;23.40;;
55037;SDS011;40937;53.594;10.034;2023-01-29T00:05:13;25.40;;;22.77;;
55037;SDS011;40937;53.594;10.034;2023-01-29T00:07:41;25.67;;;22.98;;
55037;SDS011;40937;53.594;10.034;2023-01-29T00:10:09;24.40;;;22.08;;
55037;SDS011;40937;53.594;10.034;2023-01-29T00:12:36;24.95;;;22.45;;
55037;SDS011;40937;53.594;10.034;2023-01-29T00:15:03;25.33;;;22.83;;
55037;SDS011;40937;53.594;10.034;2023-01-29T00:17:30;25.65;;;22.00;;
55037;SDS011;40937;53.594;10.034;2023-01-29T00:19:57;25.50;;;22.98;;
55037;SDS011;40937;53.594;10.034;2023-01-29T00:22:23;26.08;;;22.95;;
55037;SDS011;40937;53.594;10.034;2023-01-29T00:24:51;24.50;;;22.00;;
55037;SDS011;40937;53.594;10.034;2023-01-29T00:27:18;27.27;;;22.45;;
55037;SDS011;40937;53.594;10.034;2023-01-29T00:29:46;24.77;;;22.30;;
55037;SDS011;40937;53.594;10.034;2023-01-29T00:32:33;22.98;;;20.90;;
55037;SDS011;40937;53.594;10.034;2023-01-29T00:35:00;25.55;;;23.15;;
55037;SDS011;40937;53.594;10.034;2023-01-29T00:37:27;23.58;;;21.27;;
55037;SDS011;40937;53.594;10.034;2023-01-29T00:39:55;23.58;;;21.35;;
55037;SDS011;40937;53.594;10.034;2023-01-29T00:42:22;24.27;;;21.80;;
55037;SDS011;40937;53.594;10.034;2023-01-29T00:45:09;23.10;;;20.77;;
55037;SDS011;40937;53.594;10.034;2023-01-29T00:47:36;23.50;;;21.05;;
55037;SDS011;40937;53.594;10.034;2023-01-29T00:50:04;25.15;;;22.35;;
55037;SDS011;40937;53.594;10.034;2023-01-29T00:52:32;22.45;;;20.33;;
55037;SDS011;40937;53.594;10.034;2023-01-29T00:55:02;23.25;;;20.90;;
55037;SDS011;40937;53.594;10.034;2023-01-29T00:57:31;23.27;;;21.15;;
55037;SDS011;40937;53.594;10.034;2023-01-29T00:59:59;22.77;;;20.52;;
55037;SDS011;40937;53.594;10.034;2023-01-29T01:02:26;22.77;;;20.52;;
55037;SDS011;40937;53.594;10.034;2023-01-29T01:05:12;21.98;;;19.77;;
55037;SDS011;40937;53.594;10.034;2023-01-29T01:07:42;22.40;;;20.20;;
55037;SDS011;40937;53.594;10.034;2023-01-29T01:10:11;21.70;;;19.58;;
55037;SDS011;40937;53.594;10.034;2023-01-29T01:12:49;21.27;;;19.23;;
55037;SDS011;40937;53.594;10.034;2023-01-29T01:15:19;21.23;;;19.15;;
55037;SDS011;40937;53.594;10.034;2023-01-29T01:17:46;22.55;;;19.50;;
55037;SDS011;40937;53.594;10.034;2023-01-29T01:20:14;21.27;;;19.00;;
55037;SDS011;40937;53.594;10.034;2023-01-29T01:22:40;21.98;;;19.65;;
55037;SDS011;40937;53.594;10.034;2023-01-29T01:25:07;20.98;;;18.65;;
55037;SDS011;40937;53.594;10.034;2023-01-29T01:27:36;21.15;;;19.08;;
55037;SDS011;40937;53.594;10.034;2023-01-29T01:30:06;25.52;;;18.80;;
55037;SDS011;40937;53.594;10.034;2023-01-29T01:32:35;24.13;;;18.85;;
55037;SDS011;40937;53.594;10.034;2023-01-29T01:35:02;21.50;;;19.27;;
55037;SDS011;40937;53.594;10.034;2023-01-29T01:37:29;26.65;;;18.75;;
55037;SDS011;40937;53.594;10.034;2023-01-29T01:39:55;23.65;;;18.33;;
55037;SDS011;40937;53.594;10.034;2023-01-29T01:42:26;24.23;;;19.17;;
55037;SDS011;40937;53.594;10.034;2023-01-29T01:44:56;19.63;;;17.55;;
55037;SDS011;40937;53.594;10.034;2023-01-29T01:47:26;21.83;;;17.92;;
55037;SDS011;40937;53.594;10.034;2023-01-29T01:50:00;20.75;;;18.60;;
55037;SDS011;40937;53.594;10.034;2023-01-29T01:52:33;19.40;;;17.23;;
55037;SDS011;40937;53.594;10.034;2023-01-29T01:55:03;22.52;;;17.70;;
55037;SDS011;40937;53.594;10.034;2023-01-29T01:57:30;20.17;;;17.05;;
55037;SDS011;40937;53.594;10.034;2023-01-29T02:00:01;20.42;;;17.65;;
55037;SDS011;40937;53.594;10.034;2023-01-29T02:02:38;19.90;;;16.67;;
55037;SDS011;40937;53.594;10.034;2023-01-29T02:05:27;19.67;;;17.48;;
55037;SDS011;40937;53.594;10.034;2023-01-29T02:08:14;19.90;;;18.10;;
55037;SDS011;40937;53.594;10.034;2023-01-29T02:11:01;18.83;;;16.95;;
55037;SDS011;40937;53.594;10.034;2023-01-29T02:13:28;19.92;;;17.88;;
55037;SDS011;40937;53.594;10.034;2023-01-29T02:15:56;21.98;;;17.13;;
55037;SDS011;40937;53.594;10.034;2023-01-29T02:18:23;20.92;;;17.23;;
55037;SDS011;40937;53.594;10.034;2023-01-29T02:20:56;20.88;;;17.85;;
55037;SDS011;40937;53.594;10.034;2023-01-29T02:23:45;18.90;;;17.00;;
55037;SDS011;40937;53.594;10.034;2023-01-29T02:26:36;19.65;;;17.67;;
55037;SDS011;40937;53.594;10.034;2023-01-29T02:29:13;19.83;;;17.10;;
55037;SDS011;40937;53.594;10.034;2023-01-29T02:31:51;20.88;;;18.27;;
55037;SDS011;40937;53.594;10.034;2023-01-29T02:34:27;20.20;;;17.23;;
55037;SDS011;40937;53.594;10.034;2023-01-29T02:37:20;22.10;;;18.42;;
55037;SDS011;40937;53.594;10.034;2023-01-29T02:39:54;18.83;;;16.58;;
55037;SDS011;40937;53.594;10.034;2023-01-29T02:42:30;21.42;;;18.25;;
55037;SDS011;40937;53.594;10.034;2023-01-29T02:47:37;20.15;;;17.60;;
55037;SDS011;40937;53.594;10.034;2023-01-29T02:50:10;19.75;;;17.77;;
55037;SDS011;40937;53.594;10.034;2023-01-29T02:52:44;21.70;;;18.48;;
55037;SDS011;40937;53.594;10.034;2023-01-29T02:55:17;20.17;;;18.10;;
55037;SDS011;40937;53.594;10.034;2023-01-29T02:57:48;20.23;;;17.13;;
55037;SDS011;40937;53.594;10.034;2023-01-29T03:00:22;19.30;;;17.30;;
55037;SDS011;40937;53.594;10.034;2023-01-29T03:02:54;20.10;;;18.10;;
55037;SDS011;40937;53.594;10.034;2023-01-29T03:05:27;19.75;;;16.35;;
55037;SDS011;40937;53.594;10.034;2023-01-29T03:10:34;18.95;;;16.00;;
55037;SDS011;40937;53.594;10.034;2023-01-29T03:13:04;18.90;;;17.10;;
55037;SDS011;40937;53.594;10.034;2023-01-29T03:15:37;18.05;;;16.23;;
55037;SDS011;40937;53.594;10.034;2023-01-29T03:18:32;17.98;;;16.27;;
55037;SDS011;40937;53.594;10.034;2023-01-29T03:21:07;17.95;;;16.15;;
55037;SDS011;40937;53.594;10.034;2023-01-29T03:23:52;19.48;;;16.50;;
55037;SDS011;40937;53.594;10.034;2023-01-29T03:26:39;17.88;;;16.20;;
55037;SDS011;40937;53.594;10.034;2023-01-29T03:29:29;19.38;;;17.30;;
55037;SDS011;40937;53.594;10.034;2023-01-29T03:32:16;17.83;;;15.98;;
55037;SDS011;40937;53.594;10.034;2023-01-29T03:34:45;18.73;;;16.70;;
55037;SDS011;40937;53.594;10.034;2023-01-29T03:37:17;21.02;;;16.80;;
55037;SDS011;40937;53.594;10.034;2023-01-29T03:39:49;19.17;;;17.05;;
55037;SDS011;40937;53.594;10.034;2023-01-29T03:42:17;18.25;;;16.35;;
55037;SDS011;40937;53.594;10.034;2023-01-29T03:44:52;18.98;;;17.00;;
55037;SDS011;40937;53.594;10.034;2023-01-29T03:47:31;20.25;;;16.52;;
55037;SDS011;40937;53.594;10.034;2023-01-29T03:50:08;17.85;;;16.15;;
55037;SDS011;40937;53.594;10.034;2023-01-29T03:52:41;16.50;;;14.80;;
55037;SDS011;40937;53.594;10.034;2023-01-29T03:57:41;16.02;;;14.40;;
55037;SDS011;40937;53.594;10.034;2023-01-29T04:00:18;16.85;;;14.68;;
55037;SDS011;40937;53.594;10.034;2023-01-29T04:03:00;17.38;;;15.65;;
55037;SDS011;40937;53.594;10.034;2023-01-29T04:05:39;16.23;;;14.65;;
55037;SDS011;40937;53.594;10.034;2023-01-29T04:08:25;16.77;;;15.20;;
55037;SDS011;40937;53.594;10.034;2023-01-29T04:10:58;16.33;;;14.63;;
55037;SDS011;40937;53.594;10.034;2023-01-29T04:13:30;16.20;;;14.48;;
55037;SDS011;40937;53.594;10.034;2023-01-29T04:15:59;17.55;;;14.70;;
55037;SDS011;40937;53.594;10.034;2023-01-29T04:18:49;15.88;;;14.43;;
55037;SDS011;40937;53.594;10.034;2023-01-29T04:21:23;15.55;;;14.05;;
55037;SDS011;40937;53.594;10.034;2023-01-29T04:23:51;15.77;;;14.32;;
55037;SDS011;40937;53.594;10.034;2023-01-29T04:26:23;16.60;;;14.77;;
55037;SDS011;40937;53.594;10.034;2023-01-29T04:29:05;18.75;;;16.20;;
55037;SDS011;40937;53.594;10.034;2023-01-29T04:31:44;17.13;;;15.00;;
55037;SDS011;40937;53.594;10.034;2023-01-29T04:34:22;16.88;;;15.10;;
55037;SDS011;40937;53.594;10.034;2023-01-29T04:37:00;18.05;;;16.15;;
55037;SDS011;40937;53.594;10.034;2023-01-29T04:39:35;17.20;;;15.25;;
55037;SDS011;40937;53.594;10.034;2023-01-29T04:42:11;16.65;;;15.10;;
55037;SDS011;40937;53.594;10.034;2023-01-29T04:44:45;17.33;;;15.65;;
55037;SDS011;40937;53.594;10.034;2023-01-29T04:47:21;17.30;;;15.40;;
55037;SDS011;40937;53.594;10.034;2023-01-29T04:49:58;18.67;;;16.77;;
55037;SDS011;40937;53.594;10.034;2023-01-29T04:52:34;19.27;;;17.00;;
55037;SDS011;40937;53.594;10.034;2023-01-29T04:55:11;16.90;;;15.27;;
55037;SDS011;40937;53.594;10.034;2023-01-29T04:57:44;20.20;;;16.00;;
55037;SDS011;40937;53.594;10.034;2023-01-29T05:00:16;18.13;;;16.33;;
55037;SDS011;40937;53.594;10.034;2023-01-29T05:02:45;22.92;;;17.15;;
55037;SDS011;40937;53.594;10.034;2023-01-29T05:05:17;18.00;;;16.35;;
55037;SDS011;40937;53.594;10.034;2023-01-29T05:07:46;18.52;;;16.80;;
55037;SDS011;40937;53.594;10.034;2023-01-29T05:10:14;17.80;;;16.00;;
55037;SDS011;40937;53.594;10.034;2023-01-29T05:12:44;17.77;;;16.08;;
55037;SDS011;40937;53.594;10.034;2023-01-29T05:15:15;19.77;;;17.42;;
55037;SDS011;40937;53.594;10.034;2023-01-29T05:17:45;18.55;;;16.65;;
55037;SDS011;40937;53.594;10.034;2023-01-29T05:20:11;20.90;;;17.42;;
55037;SDS011;40937;53.594;10.034;2023-01-29T05:22:40;20.23;;;18.17;;
55037;SDS011;40937;53.594;10.034;2023-01-29T05:25:11;19.33;;;17.42;;
55037;SDS011;40937;53.594;10.034;2023-01-29T05:27:46;19.65;;;17.75;;
55037;SDS011;40937;53.594;10.034;2023-01-29T05:32:56;19.30;;;17.40;;
55037;SDS011;40937;53.594;10.034;2023-01-29T05:35:23;18.45;;;16.50;;
55037;SDS011;40937;53.594;10.034;2023-01-29T05:37:51;19.65;;;17.65;;
55037;SDS011;40937;53.594;10.034;2023-01-29T05:40:17;19.95;;;18.05;;
55037;SDS011;40937;53.594;10.034;2023-01-29T05:42:45;19.60;;;17.65;;
55037;SDS011;40937;53.594;10.034;2023-01-29T05:45:12;19.05;;;17.25;;
55037;SDS011;40937;53.594;10.034;2023-01-29T05:47:38;20.02;;;17.65;;
55037;SDS011;40937;53.594;10.034;2023-01-29T05:50:05;18.85;;;17.13;;
55037;SDS011;40937;53.594;10.034;2023-01-29T05:52:33;20.30;;;18.17;;
55037;SDS011;40937;53.594;10.034;2023-01-29T05:55:01;22.75;;;18.60;;
55037;SDS011;40937;53.594;10.034;2023-01-29T05:57:28;20.02;;;18.23;;
55037;SDS011;40937;53.594;10.034;2023-01-29T05:59:55;21.13;;;18.88;;
55037;SDS011;40937;53.594;10.034;2023-01-29T06:02:21;20.98;;;18.92;;
55037;SDS011;40937;53.594;10.034;2023-01-29T06:04:49;20.83;;;18.75;;
55037;SDS011;40937;53.594;10.034;2023-01-29T06:07:16;20.90;;;18.80;;
55037;SDS011;40937;53.594;10.034;2023-01-29T06:09:42;22.10;;;19.80;;
55037;SDS011;40937;53.594;10.034;2023-01-29T06:12:10;20.35;;;18.45;;
55037;SDS011;40937;53.594;10.034;2023-01-29T06:14:37;20.35;;;18.45;;
55037;SDS011;40937;53.594;10.034;2023-01-29T06:17:04;23.17;;;20.80;;
55037;SDS011;40937;53.594;10.034;2023-01-29T06:19:30;21.73;;;19.75;;
55037;SDS011;40937;53.594;10.034;2023-01-29T06:21:57;22.30;;;19.92;;
55037;SDS011;40937;53.594;10.034;2023-01-29T06:24:24;22.08;;;19.90;;
55037;SDS011;40937;53.594;10.034;2023-01-29T06:26:51;21.73;;;19.60;;
55037;SDS011;40937;53.594;10.034;2023-01-29T06:29:19;22.63;;;20.45;;
55037;SDS011;40937;53.594;10.034;2023-01-29T06:31:45;22.33;;;19.95;;
55037;SDS011;40937;53.594;10.034;2023-01-29T06:34:12;24.10;;;20.52;;
55037;SDS011;40937;53.594;10.034;2023-01-29T06:36:38;20.05;;;18.15;;
55037;SDS011;40937;53.594;10.034;2023-01-29T06:39:06;22.60;;;19.38;;
55037;SDS011;40937;53.594;10.034;2023-01-29T06:41:33;20.23;;;18.23;;
55037;SDS011;40937;53.594;10.034;2023-01-29T06:43:59;20.23;;;18.23;;
55037;SDS011;40937;53.594;10.034;2023-01-29T06:46:27;19.52;;;17.60;;
55037;SDS011;40937;53.594;10.034;2023-01-29T06:48:56;18.67;;;17.05;;
55037;SDS011;40937;53.594;10.034;2023-01-29T06:51:23;19.55;;;17.70;;
55037;SDS011;40937;53.594;10.034;2023-01-29T06:53:50;20.70;;;18.67;;
55037;SDS011;40937;53.594;10.034;2023-01-29T06:56:18;18.63;;;16.85;;
55037;SDS011;40937;53.594;10.034;2023-01-29T06:58:45;21.63;;;19.35;;
55037;SDS011;40937;53.594;10.034;2023-01-29T07:01:12;19.42;;;17.65;;
55037;SDS011;40937;53.594;10.034;2023-01-29T07:03:50;20.67;;;18.65;;
55037;SDS011;40937;53.594;10.034;2023-01-29T07:06:17;21.42;;;19.42;;
55037;SDS011;40937;53.594;10.034;2023-01-29T07:08:43;20.55;;;18.27;;
55037;SDS011;40937;53.594;10.034;2023-01-29T07:11:10;21.33;;;19.23;;
55037;SDS011;40937;53.594;10.034;2023-01-29T07:13:37;21.55;;;19.27;;
55037;SDS011;40937;53.594;10.034;2023-01-29T07:16:04;21.77;;;18.90;;
55037;SDS011;40937;53.594;10.034;2023-01-29T07:18:31;20.65;;;18.65;;
55037;SDS011;40937;53.594;10.034;2023-01-29T07:21:02;20.08;;;18.15;;
55037;SDS011;40937;53.594;10.034;2023-01-29T07:23:30;20.88;;;18.83;;
55037;SDS011;40937;53.594;10.034;2023-01-29T07:25:59;20.67;;;18.60;;
55037;SDS011;40937;53.594;10.034;2023-01-29T07:28:27;20.92;;;19.00;;
55037;SDS011;40937;53.594;10.034;2023-01-29T07:30:54;22.30;;;19.95;;
55037;SDS011;40937;53.594;10.034;2023-01-29T07:33:21;21.85;;;19.60;;
55037;SDS011;40937;53.594;10.034;2023-01-29T07:35:48;22.15;;;19.83;;
55037;SDS011;40937;53.594;10.034;2023-01-29T07:38:16;21.67;;;19.83;;
55037;SDS011;40937;53.594;10.034;2023-01-29T07:40:43;21.67;;;19.48;;
55037;SDS011;40937;53.594;10.034;2023-01-29T07:43:10;22.65;;;20.50;;
55037;SDS011;40937;53.594;10.034;2023-01-29T07:45:37;22.95;;;20.60;;
55037;SDS011;40937;53.594;10.034;2023-01-29T07:48:05;23.40;;;21.13;;
55037;SDS011;40937;53.594;10.034;2023-01-29T07:50:33;23.15;;;21.05;;
55037;SDS011;40937;53.594;10.034;2023-01-29T07:53:00;24.80;;;22.33;;
55037;SDS011;40937;53.594;10.034;2023-01-29T07:55:28;23.73;;;21.35;;
55037;SDS011;40937;53.594;10.034;2023-01-29T07:57:55;23.45;;;21.17;;
55037;SDS011;40937;53.594;10.034;2023-01-29T08:00:22;25.30;;;23.00;;
55037;SDS011;40937;53.594;10.034;2023-01-29T08:02:50;27.10;;;24.25;;
55037;SDS011;40937;53.594;10.034;2023-01-29T08:05:19;25.90;;;23.08;;
55037;SDS011;40937;53.594;10.034;2023-01-29T08:07:49;24.98;;;22.52;;
55037;SDS011;40937;53.594;10.034;2023-01-29T08:10:22;26.15;;;23.63;;
55037;SDS011;40937;53.594;10.034;2023-01-29T08:12:53;26.67;;;24.08;;
55037;SDS011;40937;53.594;10.034;2023-01-29T08:15:21;27.63;;;24.98;;
55037;SDS011;40937;53.594;10.034;2023-01-29T08:17:48;27.42;;;24.05;;
55037;SDS011;40937;53.594;10.034;2023-01-29T08:20:14;27.35;;;24.80;;
55037;SDS011;40937;53.594;10.034;2023-01-29T08:22:41;27.83;;;25.00;;
55037;SDS011;40937;53.594;10.034;2023-01-29T08:25:08;29.33;;;26.67;;
55037;SDS011;40937;53.594;10.034;2023-01-29T08:27:36;27.20;;;24.75;;
55037;SDS011;40937;53.594;10.034;2023-01-29T08:30:05;29.48;;;26.58;;
55037;SDS011;40937;53.594;10.034;2023-01-29T08:32:33;30.90;;;27.98;;
55037;SDS011;40937;53.594;10.034;2023-01-29T08:34:59;32.25;;;26.23;;
55037;SDS011;40937;53.594;10.034;2023-01-29T08:37:26;32.72;;;27.83;;
55037;SDS011;40937;53.594;10.034;2023-01-29T08:39:53;31.52;;;27.98;;
55037;SDS011;40937;53.594;10.034;2023-01-29T08:42:19;32.65;;;29.20;;
55037;SDS011;40937;53.594;10.034;2023-01-29T08:44:46;32.70;;;29.17;;
55037;SDS011;40937;53.594;10.034;2023-01-29T08:47:14;32.83;;;29.73;;
55037;SDS011;40937;53.594;10.034;2023-01-29T08:49:41;32.33;;;28.98;;
55037;SDS011;40937;53.594;10.034;2023-01-29T08:52:07;33.55;;;30.25;;
55037;SDS011;40937;53.594;10.034;2023-01-29T08:54:34;33.55;;;29.90;;
55037;SDS011;40937;53.594;10.034;2023-01-29T08:57:01;38.70;;;32.58;;
55037;SDS011;40937;53.594;10.034;2023-01-29T08:59:27;38.75;;;33.20;;
55037;SDS011;40937;53.594;10.034;2023-01-29T09:01:54;37.00;;;33.17;;
55037;SDS011;40937;53.594;10.034;2023-01-29T09:04:22;37.58;;;33.65;;
55037;SDS011;40937;53.594;10.034;2023-01-29T09:06:49;39.50;;;35.25;;
55037;SDS011;40937;53.594;10.034;2023-01-29T09:09:15;39.40;;;35.40;;
55037;SDS011;40937;53.594;10.034;2023-01-29T09:11:44;39.97;;;36.13;;
55037;SDS011;40937;53.594;10.034;2023-01-29T09:14:11;40.92;;;34.47;;
55037;SDS011;40937;53.594;10.034;2023-01-29T09:16:38;45.22;;;36.50;;
55037;SDS011;40937;53.594;10.034;2023-01-29T09:19:05;43.22;;;38.92;;
55037;SDS011;40937;53.594;10.034;2023-01-29T09:21:33;40.83;;;36.60;;
55037;SDS011;40937;53.594;10.034;2023-01-29T09:24:00;32.10;;;26.20;;
55037;SDS011;40937;53.594;10.034;2023-01-29T09:26:27;44.78;;;40.22;;
55037;SDS011;40937;53.594;10.034;2023-01-29T09:28:54;40.03;;;36.28;;
55037;SDS011;40937;53.594;10.034;2023-01-29T09:31:20;38.70;;;34.80;;
55037;SDS011;40937;53.594;10.034;2023-01-29T09:33:47;39.20;;;35.10;;
55037;SDS011;40937;53.594;10.034;2023-01-29T09:36:14;38.28;;;34.60;;
55037;SDS011;40937;53.594;10.034;2023-01-29T09:38:42;40.17;;;35.90;;
55037;SDS011;40937;53.594;10.034;2023-01-29T09:41:13;40.53;;;36.45;;
55037;SDS011;40937;53.594;10.034;2023-01-29T09:43:51;40.33;;;36.42;;
55037;SDS011;40937;53.594;10.034;2023-01-29T09:46:21;41.08;;;36.83;;
55037;SDS011;40937;53.594;10.034;2023-01-29T09:48:56;41.08;;;36.90;;
55037;SDS011;40937;53.594;10.034;2023-01-29T09:51:27;39.70;;;35.60;;
55037;SDS011;40937;53.594;10.034;2023-01-29T09:54:04;41.17;;;36.97;;
55037;SDS011;40937;53.594;10.034;2023-01-29T09:56:38;41.83;;;37.38;;
55037;SDS011;40937;53.594;10.034;2023-01-29T09:59:07;40.58;;;36.72;;
55037;SDS011;40937;53.594;10.034;2023-01-29T10:01:39;42.90;;;38.75;;
55037;SDS011;40937;53.594;10.034;2023-01-29T10:07:23;40.78;;;36.75;;
55037;SDS011;40937;53.594;10.034;2023-01-29T10:10:11;40.97;;;36.88;;
55037;SDS011;40937;53.594;10.034;2023-01-29T10:12:49;41.08;;;37.08;;
55037;SDS011;40937;53.594;10.034;2023-01-29T10:15:27;40.53;;;36.20;;
55037;SDS011;40937;53.594;10.034;2023-01-29T10:18:17;39.90;;;35.90;;
55037;SDS011;40937;53.594;10.034;2023-01-29T10:21:00;40.65;;;36.45;;
55037;SDS011;40937;53.594;10.034;2023-01-29T10:23:34;42.72;;;38.53;;
55037;SDS011;40937;53.594;10.034;2023-01-29T10:26:05;42.75;;;38.25;;
55037;SDS011;40937;53.594;10.034;2023-01-29T10:28:37;43.00;;;38.70;;
55037;SDS011;40937;53.594;10.034;2023-01-29T10:31:11;44.90;;;40.30;;
55037;SDS011;40937;53.594;10.034;2023-01-29T10:33:44;46.85;;;42.28;;
55037;SDS011;40937;53.594;10.034;2023-01-29T10:38:45;47.28;;;42.53;;
55037;SDS011;40937;53.594;10.034;2023-01-29T10:41:21;47.55;;;42.78;;
55037;SDS011;40937;53.594;10.034;2023-01-29T10:44:01;51.35;;;46.00;;
55037;SDS011;40937;53.594;10.034;2023-01-29T10:46:40;49.55;;;44.38;;
55037;SDS011;40937;53.594;10.034;2023-01-29T10:49:23;50.30;;;45.58;;
55037;SDS011;40937;53.594;10.034;2023-01-29T10:52:06;50.22;;;44.85;;
55037;SDS011;40937;53.594;10.034;2023-01-29T10:54:45;48.13;;;43.47;;
55037;SDS011;40937;53.594;10.034;2023-01-29T10:57:25;47.50;;;42.67;;
55037;SDS011;40937;53.594;10.034;2023-01-29T11:00:07;46.72;;;42.10;;
55037;SDS011;40937;53.594;10.034;2023-01-29T11:05:10;46.08;;;41.08;;
55037;SDS011;40937;53.594;10.034;2023-01-29T11:07:45;46.17;;;41.05;;
55037;SDS011;40937;53.594;10.034;2023-01-29T11:10:13;47.20;;;42.40;;
55037;SDS011;40937;53.594;10.034;2023-01-29T11:12:46;44.45;;;40.05;;
55037;SDS011;40937;53.594;10.034;2023-01-29T11:15:15;43.72;;;39.55;;
55037;SDS011;40937;53.594;10.034;2023-01-29T11:18:00;44.90;;;40.17;;
55037;SDS011;40937;53.594;10.034;2023-01-29T11:20:29;42.90;;;38.83;;
55037;SDS011;40937;53.594;10.034;2023-01-29T11:22:58;44.75;;;40.42;;
55037;SDS011;40937;53.594;10.034;2023-01-29T11:25:24;42.72;;;38.25;;
55037;SDS011;40937;53.594;10.034;2023-01-29T11:27:58;41.60;;;37.53;;
55037;SDS011;40937;53.594;10.034;2023-01-29T11:30:26;42.53;;;38.20;;
55037;SDS011;40937;53.594;10.034;2023-01-29T11:32:59;42.50;;;38.22;;
55037;SDS011;40937;53.594;10.034;2023-01-29T11:35:38;42.30;;;38.15;;
55037;SDS011;40937;53.594;10.034;2023-01-29T11:38:06;41.70;;;37.75;;
55037;SDS011;40937;53.594;10.034;2023-01-29T11:40:36;39.67;;;35.90;;
55037;SDS011;40937;53.594;10.034;2023-01-29T11:43:16;39.03;;;35.30;;
55037;SDS011;40937;53.594;10.034;2023-01-29T11:45:53;38.95;;;35.03;;
55037;SDS011;40937;53.594;10.034;2023-01-29T11:48:22;37.92;;;34.25;;
55037;SDS011;40937;53.594;10.034;2023-01-29T11:50:54;37.00;;;33.22;;
55037;SDS011;40937;53.594;10.034;2023-01-29T11:53:35;37.13;;;33.55;;
55037;SDS011;40937;53.594;10.034;2023-01-29T11:56:14;36.92;;;33.33;;
55037;SDS011;40937;53.594;10.034;2023-01-29T11:58:46;38.03;;;34.15;;
55037;SDS011;40937;53.594;10.034;2023-01-29T12:01:15;37.83;;;34.20;;
55037;SDS011;40937;53.594;10.034;2023-01-29T12:03:49;36.20;;;32.75;;
55037;SDS011;40937;53.594;10.034;2023-01-29T12:06:19;37.05;;;33.50;;
55037;SDS011;40937;53.594;10.034;2023-01-29T12:08:52;35.15;;;31.85;;
55037;SDS011;40937;53.594;10.034;2023-01-29T12:11:25;37.08;;;32.67;;
55037;SDS011;40937;53.594;10.034;2023-01-29T12:13:56;37.67;;;33.88;;
55037;SDS011;40937;53.594;10.034;2023-01-29T12:16:24;36.47;;;32.88;;
55037;SDS011;40937;53.594;10.034;2023-01-29T12:18:55;33.47;;;30.20;;
55037;SDS011;40937;53.594;10.034;2023-01-29T12:21:32;36.88;;;33.25;;
55037;SDS011;40937;53.594;10.034;2023-01-29T12:24:05;36.40;;;32.60;;
55037;SDS011;40937;53.594;10.034;2023-01-29T12:26:50;35.90;;;32.47;;
55037;SDS011;40937;53.594;10.034;2023-01-29T12:29:24;36.13;;;32.33;;
55037;SDS011;40937;53.594;10.034;2023-01-29T12:32:01;32.90;;;29.65;;
55037;SDS011;40937;53.594;10.034;2023-01-29T12:34:36;34.67;;;31.42;;
55037;SDS011;40937;53.594;10.034;2023-01-29T12:37:12;36.42;;;32.65;;
55037;SDS011;40937;53.594;10.034;2023-01-29T12:39:46;35.30;;;31.80;;
55037;SDS011;40937;53.594;10.034;2023-01-29T12:42:14;36.47;;;32.78;;
55037;SDS011;40937;53.594;10.034;2023-01-29T12:44:46;35.17;;;31.67;;
55037;SDS011;40937;53.594;10.034;2023-01-29T12:47:17;35.88;;;32.20;;
55037;SDS011;40937;53.594;10.034;2023-01-29T12:49:48;37.20;;;33.63;;
55037;SDS011;40937;53.594;10.034;2023-01-29T12:52:20;35.40;;;31.75;;
55037;SDS011;40937;53.594;10.034;2023-01-29T12:54:55;36.33;;;32.95;;
55037;SDS011;40937;53.594;10.034;2023-01-29T12:57:31;35.53;;;32.22;;
55037;SDS011;40937;53.594;10.034;2023-01-29T13:00:08;35.42;;;31.95;;
55037;SDS011;40937;53.594;10.034;2023-01-29T13:02:39;35.90;;;32.40;;
55037;SDS011;40937;53.594;10.034;2023-01-29T13:05:16;33.72;;;30.35;;
55037;SDS011;40937;53.594;10.034;2023-01-29T13:07:48;35.47;;;31.80;;
55037;SDS011;40937;53.594;10.034;2023-01-29T13:10:22;34.53;;;31.15;;
55037;SDS011;40937;53.594;10.034;2023-01-29T13:12:53;34.55;;;31.15;;
55037;SDS011;40937;53.594;10.034;2023-01-29T13:15:25;35.30;;;31.73;;
55037;SDS011;40937;53.594;10.034;2023-01-29T13:17:56;33.87;;;30.50;;
55037;SDS011;40937;53.594;10.034;2023-01-29T13:20:29;34.63;;;30.97;;
55037;SDS011;40937;53.594;10.034;2023-01-29T13:22:58;33.90;;;30.55;;
55037;SDS011;40937;53.594;10.034;2023-01-29T13:25:38;32.63;;;29.40;;
55037;SDS011;40937;53.594;10.034;2023-01-29T13:28:04;31.67;;;28.90;;
55037;SDS011;40937;53.594;10.034;2023-01-29T13:30:33;33.50;;;30.42;;
55037;SDS011;40937;53.594;10.034;2023-01-29T13:33:02;33.40;;;30.25;;
55037;SDS011;40937;53.594;10.034;2023-01-29T13:35:34;32.22;;;28.75;;
55037;SDS011;40937;53.594;10.034;2023-01-29T13:38:02;32.92;;;29.67;;
55037;SDS011;40937;53.594;10.034;2023-01-29T13:40:30;32.38;;;29.25;;
55037;SDS011;40937;53.594;10.034;2023-01-29T13:42:59;32.75;;;29.77;;
55037;SDS011;40937;53.594;10.034;2023-01-29T13:45:29;33.45;;;29.80;;
55037;SDS011;40937;53.594;10.034;2023-01-29T13:48:08;33.17;;;30.17;;
55037;SDS011;40937;53.594;10.034;2023-01-29T13:50:36;34.28;;;30.80;;
55037;SDS011;40937;53.594;10.034;2023-01-29T13:53:06;34.50;;;30.92;;
55037;SDS011;40937;53.594;10.034;2023-01-29T13:55:43;32.28;;;29.08;;
55037;SDS011;40937;53.594;10.034;2023-01-29T13:58:12;33.42;;;30.13;;
55037;SDS011;40937;53.594;10.034;2023-01-29T14:00:52;33.40;;;29.98;;
55037;SDS011;40937;53.594;10.034;2023-01-29T14:06:35;33.95;;;30.33;;
55037;SDS011;40937;53.594;10.034;2023-01-29T14:11:56;35.47;;;31.85;;
55037;SDS011;40937;53.594;10.034;2023-01-29T14:17:17;34.30;;;31.08;;
55037;SDS011;40937;53.594;10.034;2023-01-29T14:19:46;35.45;;;31.88;;
55037;SDS011;40937;53.594;10.034;2023-01-29T14:22:18;36.13;;;32.53;;
55037;SDS011;40937;53.594;10.034;2023-01-29T14:24:46;36.55;;;32.92;;
55037;SDS011;40937;53.594;10.034;2023-01-29T14:27:17;36.33;;;32.17;;
55037;SDS011;40937;53.594;10.034;2023-01-29T14:29:46;35.58;;;31.77;;
55037;SDS011;40937;53.594;10.034;2023-01-29T14:32:19;36.95;;;33.33;;
55037;SDS011;40937;53.594;10.034;2023-01-29T14:34:49;34.80;;;31.42;;
55037;SDS011;40937;53.594;10.034;2023-01-29T14:37:18;35.38;;;31.83;;
55037;SDS011;40937;53.594;10.034;2023-01-29T14:39:47;37.15;;;33.35;;
55037;SDS011;40937;53.594;10.034;2023-01-29T14:42:17;35.00;;;31.55;;
55037;SDS011;40937;53.594;10.034;2023-01-29T14:44:56;36.17;;;32.80;;
55037;SDS011;40937;53.594;10.034;2023-01-29T14:50:38;33.88;;;30.63;;
55037;SDS011;40937;53.594;10.034;2023-01-29T14:53:09;34.78;;;31.73;;
55037;SDS011;40937;53.594;10.034;2023-01-29T14:55:40;34.38;;;31.17;;
55037;SDS011;40937;53.594;10.034;2023-01-29T14:58:10;36.47;;;33.05;;
55037;SDS011;40937;53.594;10.034;2023-01-29T15:00:41;34.05;;;30.80;;
55037;SDS011;40937;53.594;10.034;2023-01-29T15:03:17;34.97;;;31.58;;